createdAt,value
2023-07-07T00:00:06.819Z,14.56
2023-07-07T00:02:33.529Z,14.39
2023-07-07T00:05:03.676Z,14.51
2023-07-07T00:07:30.523Z,14.45
2023-07-07T00:09:57.185Z,14.43
2023-07-07T00:12:24.129Z,14.36
2023-07-07T00:14:58.486Z,14.31
2023-07-07T00:17:26.425Z,14.26
2023-07-07T00:19:53.019Z,14.25
2023-07-07T00:22:20.224Z,14.25
2023-07-07T00:24:47.207Z,14.15
2023-07-07T00:27:15.406Z,14.16
2023-07-07T00:29:42.059Z,14.14
2023-07-07T00:32:09.080Z,14.09
2023-07-07T00:34:37.054Z,14.04
2023-07-07T00:37:03.624Z,14.08
2023-07-07T00:39:30.258Z,13.98
2023-07-07T00:41:56.839Z,14.04
2023-07-07T00:44:29.975Z,13.92
2023-07-07T00:46:59.183Z,13.97
2023-07-07T00:49:25.801Z,13.91
2023-07-07T00:52:00.765Z,13.87
2023-07-07T00:54:32.549Z,13.85
2023-07-07T00:57:00.500Z,13.78
2023-07-07T00:59:32.949Z,13.82
2023-07-07T01:02:04.207Z,13.72
2023-07-07T01:04:32.352Z,13.81
2023-07-07T01:07:15.276Z,13.78
2023-07-07T01:09:44.503Z,13.64
2023-07-07T01:12:15.424Z,13.77
2023-07-07T01:14:44.656Z,13.67
2023-07-07T01:17:34.925Z,13.74
2023-07-07T01:20:17.629Z,13.72
2023-07-07T01:23:08.956Z,13.72
2023-07-07T01:25:46.703Z,13.68
2023-07-07T01:28:50.107Z,13.72
2023-07-07T01:31:32.108Z,13.68
2023-07-07T01:33:59.394Z,13.64
2023-07-07T01:36:26.356Z,13.72
2023-07-07T01:38:52.909Z,13.70
2023-07-07T01:41:37.380Z,13.67
2023-07-07T01:44:32.990Z,13.67
2023-07-07T01:47:09.526Z,13.67
2023-07-07T01:49:50.980Z,13.68
2023-07-07T01:52:23.519Z,13.64
2023-07-07T01:54:56.327Z,13.66
2023-07-07T01:57:26.586Z,13.54
2023-07-07T01:59:53.784Z,13.59
2023-07-07T02:02:20.706Z,13.54
2023-07-07T02:04:47.354Z,13.56
2023-07-07T02:07:14.228Z,13.61
2023-07-07T02:09:42.742Z,13.65
2023-07-07T02:12:09.560Z,13.60
2023-07-07T02:14:38.140Z,13.55
2023-07-07T02:17:05.544Z,13.62
2023-07-07T02:19:33.464Z,13.65
2023-07-07T02:22:06.191Z,13.61
2023-07-07T02:24:35.923Z,13.60
2023-07-07T02:27:02.707Z,13.59
2023-07-07T02:29:30.840Z,13.61
2023-07-07T02:31:57.476Z,13.53
2023-07-07T02:34:24.406Z,13.51
2023-07-07T02:36:53.306Z,13.55
2023-07-07T02:39:19.782Z,13.60
2023-07-07T02:41:51.751Z,13.54
2023-07-07T02:44:18.419Z,13.56
2023-07-07T02:46:45.430Z,13.52
2023-07-07T02:49:12.894Z,13.53
2023-07-07T02:51:39.811Z,13.50
2023-07-07T02:54:07.493Z,13.47
2023-07-07T02:56:34.264Z,13.49
2023-07-07T02:59:02.648Z,13.45
2023-07-07T03:01:29.875Z,13.43
2023-07-07T03:03:58.278Z,13.45
2023-07-07T03:06:26.452Z,13.48
2023-07-07T03:08:54.037Z,13.44
2023-07-07T03:11:24.974Z,13.46
2023-07-07T03:13:51.825Z,13.43
2023-07-07T03:16:32.224Z,13.48
2023-07-07T03:19:08.185Z,13.41
2023-07-07T03:21:34.884Z,13.35
2023-07-07T03:24:01.550Z,13.38
2023-07-07T03:26:29.004Z,13.40
2023-07-07T03:28:56.595Z,13.37
2023-07-07T03:31:29.860Z,13.37
2023-07-07T03:34:05.852Z,13.33
2023-07-07T03:36:34.767Z,13.31
2023-07-07T03:39:01.733Z,13.26
2023-07-07T03:41:30.696Z,13.30
2023-07-07T03:43:58.170Z,13.35
2023-07-07T03:46:27.918Z,13.37
2023-07-07T03:48:55.681Z,13.37
2023-07-07T03:51:24.956Z,13.33
2023-07-07T03:53:52.342Z,13.24
2023-07-07T03:56:20.171Z,13.39
2023-07-07T03:58:47.682Z,13.42
2023-07-07T04:01:17.475Z,13.45
2023-07-07T04:03:46.840Z,13.44
2023-07-07T04:06:18.329Z,13.45
2023-07-07T04:08:45.003Z,13.45
2023-07-07T04:11:21.743Z,13.48
2023-07-07T04:13:53.085Z,13.49
2023-07-07T04:16:25.477Z,13.39
2023-07-07T04:18:55.953Z,13.51
2023-07-07T04:21:27.758Z,13.55
2023-07-07T04:23:57.507Z,13.53
2023-07-07T04:26:26.262Z,13.56
2023-07-07T04:28:54.219Z,13.62
2023-07-07T04:31:24.742Z,13.64
2023-07-07T04:33:52.079Z,13.73
2023-07-07T04:36:21.588Z,13.80
2023-07-07T04:38:50.793Z,13.82
2023-07-07T04:41:28.190Z,13.88
2023-07-07T04:44:00.984Z,13.94
2023-07-07T04:46:30.711Z,13.95
2023-07-07T04:49:01.134Z,13.99
2023-07-07T04:51:28.153Z,14.10
2023-07-07T04:53:54.890Z,14.18
2023-07-07T04:56:23.485Z,14.28
2023-07-07T04:58:52.414Z,14.36
2023-07-07T05:01:25.118Z,14.46
2023-07-07T05:03:55.379Z,14.57
2023-07-07T05:06:23.746Z,14.65
2023-07-07T05:08:50.244Z,14.70
2023-07-07T05:11:19.534Z,14.86
2023-07-07T05:13:47.878Z,14.91
2023-07-07T05:16:18.560Z,15.14
2023-07-07T05:18:45.321Z,15.29
2023-07-07T05:21:14.177Z,15.44
2023-07-07T05:23:41.784Z,15.56
2023-07-07T05:26:09.457Z,15.67
2023-07-07T05:28:36.787Z,15.82
2023-07-07T05:31:08.807Z,15.93
2023-07-07T05:33:38.188Z,16.02
2023-07-07T05:36:07.268Z,16.26
2023-07-07T05:38:33.868Z,16.28
2023-07-07T05:41:00.931Z,16.47
2023-07-07T05:43:28.520Z,16.64
2023-07-07T05:46:04.231Z,16.76
2023-07-07T05:48:31.379Z,16.93
2023-07-07T05:51:05.111Z,17.02
2023-07-07T05:53:31.877Z,17.18
2023-07-07T05:56:05.057Z,17.27
2023-07-07T05:58:32.037Z,17.34
2023-07-07T06:00:59.338Z,17.45
2023-07-07T06:03:26.475Z,17.66
2023-07-07T06:05:53.649Z,17.81
2023-07-07T06:08:20.583Z,18.03
2023-07-07T06:10:51.582Z,18.21
2023-07-07T06:13:19.251Z,18.41
2023-07-07T06:15:46.009Z,18.60
2023-07-07T06:18:12.911Z,18.74
2023-07-07T06:20:39.512Z,18.81
2023-07-07T06:23:09.744Z,18.97
2023-07-07T06:25:36.309Z,19.14
2023-07-07T06:28:03.066Z,19.32
2023-07-07T06:30:31.077Z,19.45
2023-07-07T06:33:00.081Z,19.70
2023-07-07T06:35:28.082Z,19.82
2023-07-07T06:37:54.941Z,19.94
2023-07-07T06:40:22.074Z,19.93
2023-07-07T06:42:51.167Z,20.19
2023-07-07T06:45:18.216Z,20.41
2023-07-07T06:47:45.527Z,20.62
2023-07-07T06:50:42.727Z,20.78
2023-07-07T06:53:11.551Z,20.75
2023-07-07T06:55:39.323Z,21.00
2023-07-07T06:58:06.355Z,21.14
2023-07-07T07:00:33.802Z,21.43
2023-07-07T07:03:05.043Z,21.57
2023-07-07T07:05:37.410Z,21.62
2023-07-07T07:08:10.438Z,21.53
2023-07-07T07:10:37.487Z,21.74
2023-07-07T07:13:04.402Z,22.14
2023-07-07T07:15:31.476Z,22.10
2023-07-07T07:17:58.843Z,22.46
2023-07-07T07:20:25.656Z,22.70
2023-07-07T07:22:52.635Z,22.86
2023-07-07T07:25:19.498Z,22.88
2023-07-07T07:27:46.221Z,22.89
2023-07-07T07:30:17.004Z,23.06
2023-07-07T07:32:47.031Z,23.18
2023-07-07T07:35:14.215Z,23.52
2023-07-07T07:37:41.201Z,23.81
2023-07-07T07:40:09.390Z,23.98
2023-07-07T07:42:36.622Z,24.22
2023-07-07T07:45:15.048Z,24.34
2023-07-07T07:47:41.826Z,24.57
2023-07-07T07:50:08.996Z,24.74
2023-07-07T07:52:35.689Z,25.03
2023-07-07T07:55:02.399Z,25.33
2023-07-07T07:57:29.942Z,25.21
2023-07-07T07:59:56.655Z,24.51
2023-07-07T08:02:23.511Z,24.68
2023-07-07T08:04:51.176Z,25.02
2023-07-07T08:07:18.315Z,25.24
2023-07-07T08:09:46.701Z,25.38
2023-07-07T08:12:16.954Z,25.52
2023-07-07T08:14:45.965Z,25.49
2023-07-07T08:17:15.217Z,25.64
2023-07-07T08:19:43.791Z,25.81
2023-07-07T08:22:16.596Z,25.89
2023-07-07T08:24:49.116Z,26.06
2023-07-07T08:29:47.107Z,26.41
2023-07-07T08:32:16.473Z,26.60
2023-07-07T08:37:13.952Z,26.79
2023-07-07T08:39:40.836Z,26.72
2023-07-07T08:42:29.485Z,26.92
2023-07-07T08:44:59.183Z,26.87
2023-07-07T08:48:11.265Z,26.79
2023-07-07T08:50:48.340Z,26.75
2023-07-07T08:53:33.632Z,26.91
2023-07-07T08:56:25.173Z,26.99
2023-07-07T08:59:10.139Z,26.93
2023-07-07T09:01:45.118Z,26.82
2023-07-07T09:04:19.175Z,27.01
2023-07-07T09:07:04.828Z,27.26
2023-07-07T09:09:53.374Z,27.31
2023-07-07T09:12:39.681Z,27.23
2023-07-07T09:15:20.002Z,27.50
2023-07-07T09:17:51.841Z,27.64
2023-07-07T09:20:21.083Z,27.40
2023-07-07T09:22:55.819Z,27.63
2023-07-07T09:25:49.152Z,27.42
2023-07-07T09:28:18.462Z,27.51
2023-07-07T09:30:57.839Z,27.53
2023-07-07T09:33:25.572Z,27.73
2023-07-07T09:36:36.956Z,27.44
2023-07-07T09:39:18.627Z,27.66
2023-07-07T09:42:18.130Z,27.73
2023-07-07T09:45:17.142Z,27.92
2023-07-07T09:47:54.924Z,28.08
2023-07-07T09:50:33.943Z,28.10
2023-07-07T09:53:21.548Z,28.21
2023-07-07T09:55:51.522Z,28.02
2023-07-07T09:58:36.988Z,28.05
2023-07-07T10:01:05.604Z,27.72
2023-07-07T10:03:55.572Z,27.84
2023-07-07T10:06:49.859Z,28.18
2023-07-07T10:09:19.524Z,28.43
2023-07-07T10:12:14.486Z,28.15
2023-07-07T10:14:34.254Z,28.03
2023-07-07T10:17:01.064Z,28.22
2023-07-07T10:19:27.856Z,28.14
2023-07-07T10:21:54.471Z,28.40
2023-07-07T10:24:21.651Z,28.33
2023-07-07T10:26:49.108Z,28.44
2023-07-07T10:29:23.571Z,28.39
2023-07-07T10:31:52.288Z,28.34
2023-07-07T10:34:23.722Z,28.53
2023-07-07T10:36:54.255Z,28.65
2023-07-07T10:39:24.414Z,28.46
2023-07-07T10:41:51.427Z,28.73
2023-07-07T10:44:18.091Z,28.75
2023-07-07T10:46:44.974Z,28.67
2023-07-07T10:49:17.170Z,28.41
2023-07-07T10:52:13.611Z,28.61
2023-07-07T10:54:47.002Z,28.80
2023-07-07T10:57:41.042Z,28.83
2023-07-07T11:00:34.659Z,28.61
2023-07-07T11:03:27.437Z,28.95
2023-07-07T11:06:04.530Z,28.67
2023-07-07T11:08:54.100Z,28.50
2023-07-07T11:11:44.915Z,28.83
2023-07-07T11:14:19.119Z,28.91
2023-07-07T11:17:22.263Z,29.13
2023-07-07T11:20:06.349Z,29.08
2023-07-07T11:23:13.623Z,29.14
2023-07-07T11:26:07.863Z,29.05
2023-07-07T11:28:44.129Z,29.33
2023-07-07T11:31:55.160Z,29.30
2023-07-07T11:34:44.152Z,29.26
2023-07-07T11:37:30.074Z,29.55
2023-07-07T11:40:26.760Z,29.37
2023-07-07T11:43:00.231Z,29.39
2023-07-07T11:45:36.903Z,29.49
2023-07-07T11:48:14.421Z,29.59
2023-07-07T11:51:02.973Z,29.89
2023-07-07T11:53:44.978Z,29.86
2023-07-07T11:56:30.909Z,29.85
2023-07-07T11:59:22.452Z,29.79
2023-07-07T12:01:53.917Z,29.93
2023-07-07T12:04:26.931Z,29.95
2023-07-07T12:07:00.296Z,30.08
2023-07-07T12:10:00.477Z,29.91
2023-07-07T12:12:42.957Z,29.98
2023-07-07T12:15:31.024Z,30.08
2023-07-07T12:18:11.472Z,30.04
2023-07-07T12:20:46.739Z,29.91
2023-07-07T12:23:22.981Z,30.04
2023-07-07T12:25:49.791Z,29.99
2023-07-07T12:28:16.825Z,29.73
2023-07-07T12:30:48.264Z,29.94
2023-07-07T12:33:17.584Z,29.96
2023-07-07T12:35:53.215Z,30.14
2023-07-07T12:38:35.690Z,29.88
2023-07-07T12:41:12.016Z,30.03
2023-07-07T12:43:41.410Z,30.15
2023-07-07T12:46:19.916Z,30.10
2023-07-07T12:48:47.717Z,30.08
2023-07-07T12:51:18.653Z,30.31
2023-07-07T12:53:48.984Z,30.39
2023-07-07T12:56:25.213Z,30.07
2023-07-07T12:59:02.947Z,30.23
2023-07-07T13:01:37.855Z,30.44
2023-07-07T13:04:14.419Z,30.69
2023-07-07T13:07:04.692Z,30.89
2023-07-07T13:09:47.960Z,30.87
2023-07-07T13:12:44.781Z,30.84
2023-07-07T13:15:31.291Z,31.01
2023-07-07T13:18:02.200Z,31.04
2023-07-07T13:20:28.950Z,31.16
2023-07-07T13:23:21.798Z,31.20
2023-07-07T13:25:48.637Z,31.18
2023-07-07T13:28:17.734Z,30.90
2023-07-07T13:30:53.859Z,31.04
2023-07-07T13:33:28.822Z,31.01
2023-07-07T13:35:58.579Z,31.20
2023-07-07T13:38:29.411Z,30.97
2023-07-07T13:41:01.973Z,30.88
2023-07-07T13:43:35.241Z,30.58
2023-07-07T13:46:14.034Z,30.87
2023-07-07T13:48:50.113Z,31.20
2023-07-07T13:51:24.971Z,31.18
2023-07-07T13:53:53.002Z,31.12
2023-07-07T13:56:20.402Z,31.09
2023-07-07T13:58:49.662Z,31.14
2023-07-07T14:01:26.497Z,31.14
2023-07-07T14:03:58.144Z,31.25
2023-07-07T14:06:26.932Z,31.00
2023-07-07T14:08:55.251Z,31.22
2023-07-07T14:11:27.376Z,30.89
2023-07-07T14:13:57.991Z,30.87
2023-07-07T14:16:39.589Z,31.17
2023-07-07T14:19:22.366Z,31.31
2023-07-07T14:21:54.045Z,31.25
2023-07-07T14:24:33.632Z,31.29
2023-07-07T14:27:08.845Z,31.11
2023-07-07T14:29:39.727Z,31.27
2023-07-07T14:32:17.272Z,31.29
2023-07-07T14:34:55.164Z,31.36
2023-07-07T14:37:53.491Z,31.39
2023-07-07T14:40:28.749Z,31.29
2023-07-07T14:42:57.087Z,30.99
2023-07-07T14:45:27.862Z,30.76
2023-07-07T14:47:57.462Z,30.91
2023-07-07T14:50:33.555Z,30.88
2023-07-07T14:53:01.384Z,30.88
2023-07-07T14:55:30.429Z,30.95
2023-07-07T14:58:02.576Z,30.88
2023-07-07T15:00:37.298Z,31.04
2023-07-07T15:03:27.446Z,31.05
2023-07-07T15:06:15.192Z,30.66
2023-07-07T15:08:48.779Z,30.11
2023-07-07T15:11:15.893Z,30.27
2023-07-07T15:13:44.656Z,30.20
2023-07-07T15:16:17.230Z,30.51
2023-07-07T15:18:44.123Z,30.63
2023-07-07T15:21:19.539Z,30.75
2023-07-07T15:23:49.347Z,30.81
2023-07-07T15:26:32.081Z,30.29
2023-07-07T15:29:00.620Z,30.36
2023-07-07T15:31:29.056Z,30.39
2023-07-07T15:33:56.454Z,30.49
2023-07-07T15:36:23.618Z,30.28
2023-07-07T15:38:59.728Z,30.46
2023-07-07T15:41:29.223Z,30.56
2023-07-07T15:43:56.486Z,30.52
2023-07-07T15:46:32.672Z,30.48
2023-07-07T15:49:03.197Z,30.53
2023-07-07T15:51:46.613Z,30.41
2023-07-07T15:54:13.715Z,30.39
2023-07-07T15:56:42.088Z,30.50
2023-07-07T15:59:22.020Z,30.38
2023-07-07T16:01:51.763Z,30.25
2023-07-07T16:04:20.650Z,30.23
2023-07-07T16:06:49.372Z,30.12
2023-07-07T16:09:20.025Z,29.98
2023-07-07T16:11:47.940Z,30.00
2023-07-07T16:14:17.240Z,30.08
2023-07-07T16:16:47.379Z,30.17
2023-07-07T16:19:17.191Z,29.88
2023-07-07T16:21:44.821Z,29.92
2023-07-07T16:24:11.927Z,29.91
2023-07-07T16:26:41.839Z,29.89
2023-07-07T16:29:14.627Z,29.89
2023-07-07T16:31:43.923Z,29.74
2023-07-07T16:34:18.384Z,29.75
2023-07-07T16:36:45.263Z,29.66
2023-07-07T16:39:21.885Z,29.69
2023-07-07T16:41:49.841Z,29.56
2023-07-07T16:44:16.785Z,29.58
2023-07-07T16:46:44.246Z,29.53
2023-07-07T16:49:13.807Z,29.54
2023-07-07T16:51:42.931Z,29.57
2023-07-07T16:54:10.602Z,29.44
2023-07-07T16:56:41.329Z,29.49
2023-07-07T16:59:17.089Z,29.53
2023-07-07T17:01:45.946Z,29.56
2023-07-07T17:04:13.960Z,29.47
2023-07-07T17:06:44.380Z,29.32
2023-07-07T17:09:15.063Z,29.43
2023-07-07T17:11:44.416Z,29.49
2023-07-07T17:14:11.815Z,29.53
2023-07-07T17:16:42.413Z,29.38
2023-07-07T17:19:20.414Z,29.30
2023-07-07T17:21:57.509Z,29.26
2023-07-07T17:24:33.254Z,29.23
2023-07-07T17:27:06.012Z,29.17
2023-07-07T17:29:36.230Z,29.15
2023-07-07T17:32:04.600Z,29.05
2023-07-07T17:34:31.460Z,29.03
2023-07-07T17:36:59.276Z,29.25
2023-07-07T17:39:26.178Z,29.00
2023-07-07T17:41:54.798Z,28.88
2023-07-07T17:44:21.694Z,29.00
2023-07-07T17:46:48.927Z,28.77
2023-07-07T17:49:24.742Z,28.90
2023-07-07T17:51:52.129Z,28.84
2023-07-07T17:54:24.298Z,28.89
2023-07-07T17:56:54.493Z,28.75
2023-07-07T17:59:24.300Z,28.71
2023-07-07T18:01:56.245Z,28.48
2023-07-07T18:04:25.145Z,28.51
2023-07-07T18:06:56.206Z,28.57
2023-07-07T18:09:23.274Z,28.40
2023-07-07T18:11:53.125Z,28.12
2023-07-07T18:14:25.164Z,28.09
2023-07-07T18:17:06.420Z,28.17
2023-07-07T18:20:09.763Z,27.86
2023-07-07T18:22:29.132Z,27.73
2023-07-07T18:24:56.329Z,27.61
2023-07-07T18:27:24.243Z,27.66
2023-07-07T18:29:53.207Z,27.47
2023-07-07T18:32:21.342Z,27.38
2023-07-07T18:34:48.340Z,27.20
2023-07-07T18:37:16.020Z,27.22
2023-07-07T18:39:50.009Z,26.98
2023-07-07T18:42:23.314Z,26.93
2023-07-07T18:44:53.327Z,26.82
2023-07-07T18:47:21.867Z,26.68
2023-07-07T18:49:48.851Z,26.59
2023-07-07T18:52:17.387Z,26.27
2023-07-07T18:54:44.090Z,26.43
2023-07-07T18:57:11.693Z,26.19
2023-07-07T18:59:40.342Z,26.13
2023-07-07T19:02:17.670Z,25.89
2023-07-07T19:04:46.588Z,25.91
2023-07-07T19:07:16.754Z,25.73
2023-07-07T19:09:45.186Z,25.49
2023-07-07T19:12:12.469Z,25.47
2023-07-07T19:14:39.880Z,25.35
2023-07-07T19:17:14.209Z,25.25
2023-07-07T19:19:43.991Z,25.14
2023-07-07T19:22:14.557Z,25.03
2023-07-07T19:24:42.453Z,24.79
2023-07-07T19:27:12.360Z,24.61
2023-07-07T19:29:39.311Z,24.66
2023-07-07T19:32:14.929Z,24.47
2023-07-07T19:34:43.243Z,24.52
2023-07-07T19:37:11.614Z,24.45
2023-07-07T19:39:44.066Z,24.26
2023-07-07T19:42:11.976Z,24.01
2023-07-07T19:44:43.859Z,23.88
2023-07-07T19:47:15.782Z,24.10
2023-07-07T19:49:42.884Z,23.91
2023-07-07T19:52:16.865Z,23.85
2023-07-07T19:54:47.428Z,23.59
2023-07-07T19:57:19.518Z,23.41
2023-07-07T19:59:47.442Z,23.43
2023-07-07T20:02:18.204Z,23.40
2023-07-07T20:04:45.483Z,23.30
2023-07-07T20:07:14.655Z,23.24
2023-07-07T20:09:43.666Z,22.96
2023-07-07T20:12:16.423Z,23.02
2023-07-07T20:14:45.158Z,22.93
2023-07-07T20:17:13.943Z,22.84
2023-07-07T20:19:43.645Z,22.74
2023-07-07T20:22:27.247Z,22.63
2023-07-07T20:24:54.672Z,22.53
2023-07-07T20:27:21.789Z,22.38
2023-07-07T20:29:49.036Z,22.21
2023-07-07T20:32:17.747Z,22.30
2023-07-07T20:34:47.209Z,22.16
2023-07-07T20:37:15.142Z,22.27
2023-07-07T20:39:42.234Z,22.09
2023-07-07T20:42:12.301Z,22.12
2023-07-07T20:44:41.564Z,22.03
2023-07-07T20:47:11.368Z,21.86
2023-07-07T20:49:38.593Z,21.73
2023-07-07T20:52:11.603Z,21.65
2023-07-07T20:54:38.831Z,21.64
2023-07-07T20:57:19.351Z,21.80
2023-07-07T20:59:47.935Z,21.72
2023-07-07T21:02:15.138Z,21.71
2023-07-07T21:04:42.096Z,21.73
2023-07-07T21:07:16.044Z,21.68
2023-07-07T21:09:43.517Z,21.63
2023-07-07T21:12:11.020Z,21.60
2023-07-07T21:14:38.003Z,21.60
2023-07-07T21:17:05.349Z,21.47
2023-07-07T21:19:35.464Z,21.46
2023-07-07T21:22:12.158Z,21.34
2023-07-07T21:24:40.367Z,21.17
2023-07-07T21:27:10.602Z,21.19
2023-07-07T21:29:39.598Z,21.08
2023-07-07T21:32:11.949Z,20.98
2023-07-07T21:34:42.192Z,20.87
2023-07-07T21:37:12.980Z,20.96
2023-07-07T21:39:39.736Z,20.89
2023-07-07T21:42:12.928Z,20.80
2023-07-07T21:44:41.865Z,20.80
2023-07-07T21:47:13.960Z,20.72
2023-07-07T21:49:40.947Z,20.77
2023-07-07T21:52:16.194Z,20.74
2023-07-07T21:54:43.609Z,20.65
2023-07-07T21:57:33.544Z,20.71
2023-07-07T22:00:01.220Z,20.72
2023-07-07T22:02:28.068Z,20.73
2023-07-07T22:04:55.691Z,20.36
2023-07-07T22:07:22.728Z,20.35
2023-07-07T22:09:50.384Z,20.20
2023-07-07T22:12:17.215Z,20.14
2023-07-07T22:14:44.283Z,20.28
2023-07-07T22:17:12.398Z,20.24
2023-07-07T22:19:39.974Z,20.25
2023-07-07T22:22:11.712Z,20.10
2023-07-07T22:24:39.090Z,20.12
2023-07-07T22:27:06.138Z,19.99
2023-07-07T22:29:33.348Z,20.02
2023-07-07T22:32:00.162Z,20.02
2023-07-07T22:34:27.435Z,19.88
2023-07-07T22:36:54.684Z,19.75
2023-07-07T22:39:21.683Z,19.89
2023-07-07T22:41:48.866Z,19.89
2023-07-07T22:44:16.219Z,19.88
2023-07-07T22:46:44.177Z,19.92
2023-07-07T22:49:14.694Z,19.92
2023-07-07T22:51:42.985Z,19.99
2023-07-07T22:54:09.997Z,19.98
2023-07-07T22:56:38.492Z,20.00
2023-07-07T22:59:22.496Z,19.91
2023-07-07T23:01:49.475Z,20.00
2023-07-07T23:04:17.550Z,20.08
2023-07-07T23:06:46.034Z,20.02
2023-07-07T23:09:47.827Z,20.10
2023-07-07T23:12:20.152Z,19.98
2023-07-07T23:14:49.167Z,19.99
2023-07-07T23:17:28.506Z,19.88
2023-07-07T23:19:58.389Z,19.79
2023-07-07T23:22:48.202Z,19.79
2023-07-07T23:25:15.382Z,19.68
2023-07-07T23:27:50.578Z,19.66
2023-07-07T23:30:24.298Z,19.70
2023-07-07T23:32:52.901Z,19.73
2023-07-07T23:35:21.835Z,19.73
2023-07-07T23:37:52.611Z,19.69
2023-07-07T23:40:32.421Z,19.62
2023-07-07T23:43:01.725Z,19.53
2023-07-07T23:45:32.057Z,19.51
2023-07-07T23:48:03.514Z,19.47
2023-07-07T23:50:35.504Z,19.50
2023-07-07T23:53:11.227Z,19.48
2023-07-07T23:55:38.770Z,19.41
2023-07-07T23:58:05.867Z,19.32
